Time;durP1;ratioP1;P1;durP2;ratioP2;P2;SDS_P1;SDS_P2;PMS_P1;PMS_P2;Temp;Humidity;BMP_temperature;BMP_pressure;BME280_temperature;BME280_humidity;BME280_pressure;Samples;Min_cycle;Max_cycle;Signal;HPM_P1;HPM_P2
2022/10/30 00:01:56;;;;;;;21.90;13.48;;;17.60;1.00;;;;;;5050860;28;20027;-55
2022/10/30 00:04:22;;;;;;;21.60;13.50;;;17.60;1.00;;;;;;5053895;28;20025;-56
2022/10/30 00:06:48;;;;;;;24.75;14.70;;;17.60;1.00;;;;;;5051810;28;20478;-53
2022/10/30 00:09:14;;;;;;;20.13;13.48;;;17.60;1.00;;;;;;5049161;28;20125;-56
2022/10/30 00:11:40;;;;;;;20.25;14.35;;;17.60;1.00;;;;;;5050159;28;20659;-57
2022/10/30 00:14:07;;;;;;;20.77;13.45;;;17.60;1.00;;;;;;5051540;28;20094;-53
2022/10/30 00:16:32;;;;;;;19.20;13.27;;;17.60;1.00;;;;;;5053113;28;20056;-53
2022/10/30 00:18:58;;;;;;;19.67;13.63;;;17.60;1.00;;;;;;5055566;28;20475;-53
2022/10/30 00:21:24;;;;;;;19.23;12.80;;;17.50;1.00;;;;;;5052392;28;20116;-53
2022/10/30 00:23:52;;;;;;;20.60;14.48;;;17.50;1.00;;;;;;5052302;28;20033;-54
2022/10/30 00:26:20;;;;;;;17.75;13.10;;;17.50;1.00;;;;;;5052781;28;20124;-53
2022/10/30 00:28:50;;;;;;;19.90;13.90;;;17.50;1.00;;;;;;5053155;28;20120;-53
2022/10/30 00:31:16;;;;;;;21.55;14.15;;;17.50;1.00;;;;;;5053899;28;20052;-54
2022/10/30 00:33:42;;;;;;;17.23;12.23;;;17.50;1.00;;;;;;5053854;28;20025;-53
2022/10/30 00:36:07;;;;;;;17.73;14.02;;;17.50;1.00;;;;;;5051378;28;20025;-53
2022/10/30 00:38:33;;;;;;;19.58;12.75;;;17.50;1.00;;;;;;5049260;28;20037;-55
2022/10/30 00:40:59;;;;;;;21.00;13.90;;;17.50;1.00;;;;;;5051084;28;20425;-56
2022/10/30 00:43:29;;;;;;;20.38;12.73;;;17.50;1.00;;;;;;5052543;28;20425;-56
2022/10/30 00:45:59;;;;;;;23.60;13.63;;;17.50;1.00;;;;;;5054362;28;20028;-52
2022/10/30 00:48:25;;;;;;;20.15;13.52;;;17.40;1.00;;;;;;5051133;28;20107;-55
2022/10/30 00:50:52;;;;;;;17.38;12.75;;;17.40;1.00;;;;;;5046974;28;20024;-55
2022/10/30 00:53:20;;;;;;;18.08;12.23;;;17.40;1.00;;;;;;5054440;28;20052;-53
2022/10/30 00:55:54;;;;;;;21.30;13.38;;;17.40;1.00;;;;;;5053342;28;20427;-52
2022/10/30 00:58:26;;;;;;;17.95;13.18;;;17.40;1.00;;;;;;5050463;28;20021;-54
2022/10/30 01:00:58;;;;;;;18.50;13.07;;;17.40;1.00;;;;;;5050571;28;20308;-54
2022/10/30 01:03:26;;;;;;;18.38;13.07;;;17.40;1.00;;;;;;5040618;28;20024;-55
2022/10/30 01:05:55;;;;;;;18.88;12.13;;;17.40;1.00;;;;;;5046671;28;20071;-57
2022/10/30 01:08:21;;;;;;;18.33;13.43;;;17.30;1.00;;;;;;5055496;28;20112;-58
2022/10/30 01:10:47;;;;;;;20.92;13.30;;;17.30;1.00;;;;;;5049401;28;20104;-57
2022/10/30 01:13:13;;;;;;;18.60;12.70;;;17.40;1.00;;;;;;5053108;28;20063;-56
2022/10/30 01:15:57;;;;;;;21.40;12.77;;;17.40;1.00;;;;;;5047833;28;20080;-57
2022/10/30 01:18:32;;;;;;;18.40;12.30;;;17.30;1.00;;;;;;5049887;28;20048;-57
2022/10/30 01:21:16;;;;;;;19.92;13.90;;;17.30;1.00;;;;;;5050404;28;20021;-56
2022/10/30 01:24:01;;;;;;;21.85;12.95;;;17.30;1.00;;;;;;5051368;28;20393;-56
2022/10/30 01:26:29;;;;;;;20.30;13.80;;;17.30;1.00;;;;;;5046444;28;20120;-55
2022/10/30 01:29:18;;;;;;;19.63;13.52;;;17.30;1.00;;;;;;5045951;28;20044;-55
2022/10/30 01:32:05;;;;;;;22.92;13.68;;;17.30;1.00;;;;;;5049167;28;20028;-56
2022/10/30 01:34:42;;;;;;;17.60;12.15;;;17.30;1.00;;;;;;5051052;28;20372;-57
2022/10/30 01:37:31;;;;;;;21.13;12.88;;;17.30;1.00;;;;;;5049206;28;20055;-57
2022/10/30 01:40:03;;;;;;;17.92;13.30;;;17.20;1.00;;;;;;5051740;28;20021;-57
2022/10/30 01:42:45;;;;;;;20.15;13.45;;;17.20;1.00;;;;;;5048165;28;20549;-57
2022/10/30 01:45:34;;;;;;;16.63;12.65;;;17.30;1.00;;;;;;5051987;28;20021;-56
2022/10/30 01:48:31;;;;;;;21.33;13.10;;;17.20;1.00;;;;;;5022612;28;20071;-51
2022/10/30 01:51:19;;;;;;;17.40;12.68;;;17.20;1.00;;;;;;5049366;28;20031;-51
2022/10/30 01:53:59;;;;;;;21.00;14.23;;;17.20;1.00;;;;;;5048858;28;20044;-52
2022/10/30 01:56:40;;;;;;;17.73;12.77;;;17.20;1.00;;;;;;5047172;28;20029;-56
2022/10/30 01:59:06;;;;;;;19.77;13.15;;;17.20;1.00;;;;;;5051286;28;20041;-56
2022/10/30 02:01:34;;;;;;;22.10;13.80;;;17.20;1.00;;;;;;5051617;28;20101;-55
2022/10/30 02:04:01;;;;;;;19.85;12.68;;;17.20;1.00;;;;;;5050121;28;20078;-54
2022/10/30 02:06:26;;;;;;;19.00;13.32;;;17.20;1.00;;;;;;5051676;28;20035;-53
2022/10/30 02:08:55;;;;;;;22.27;13.27;;;17.20;1.00;;;;;;5052092;28;20041;-53
2022/10/30 02:11:22;;;;;;;20.63;14.25;;;17.10;1.00;;;;;;5051206;28;20021;-57
2022/10/30 02:13:49;;;;;;;24.02;13.57;;;17.20;1.00;;;;;;5052006;28;20502;-54
2022/10/30 02:16:15;;;;;;;22.48;14.55;;;17.20;1.00;;;;;;5049395;28;20123;-55
2022/10/30 02:18:41;;;;;;;21.05;13.73;;;17.10;1.00;;;;;;5049726;28;20119;-55
2022/10/30 02:21:07;;;;;;;26.13;14.15;;;17.10;1.00;;;;;;5048781;28;20033;-52
2022/10/30 02:23:34;;;;;;;21.45;14.15;;;17.10;1.00;;;;;;5049469;28;20078;-52
2022/10/30 02:25:59;;;;;;;23.55;13.88;;;17.10;1.00;;;;;;5051891;28;20029;-55
2022/10/30 02:28:25;;;;;;;21.30;14.25;;;17.10;1.00;;;;;;5053924;28;20039;-56
2022/10/30 02:30:50;;;;;;;21.17;14.65;;;17.10;1.00;;;;;;5052337;28;20079;-55
2022/10/30 02:33:16;;;;;;;21.25;14.38;;;17.10;1.00;;;;;;5048167;28;20435;-54
2022/10/30 02:35:41;;;;;;;23.60;13.68;;;17.10;1.00;;;;;;5047782;28;20017;-56
2022/10/30 02:38:07;;;;;;;20.73;13.82;;;17.10;1.00;;;;;;5051199;28;20475;-53
2022/10/30 02:40:33;;;;;;;19.65;13.27;;;17.10;1.00;;;;;;5049710;28;20029;-56
2022/10/30 02:42:58;;;;;;;22.25;13.82;;;17.00;1.00;;;;;;5048599;28;20847;-54
2022/10/30 02:45:24;;;;;;;21.92;14.15;;;17.00;1.00;;;;;;5049072;28;20017;-54
2022/10/30 02:47:49;;;;;;;18.70;12.93;;;17.00;1.00;;;;;;5060773;28;20032;-53
2022/10/30 02:50:15;;;;;;;18.00;13.55;;;17.00;1.00;;;;;;5048993;28;20049;-56
2022/10/30 02:52:41;;;;;;;21.20;13.50;;;17.00;1.00;;;;;;5049999;28;20025;-57
2022/10/30 02:55:07;;;;;;;21.05;13.43;;;17.00;1.00;;;;;;5053420;28;20152;-56
2022/10/30 02:57:32;;;;;;;19.70;12.43;;;17.00;1.00;;;;;;5052033;28;20044;-55
2022/10/30 02:59:58;;;;;;;23.95;13.23;;;17.00;1.00;;;;;;5052015;28;20021;-54
2022/10/30 03:02:23;;;;;;;18.83;12.38;;;17.00;1.00;;;;;;5048059;28;20032;-54
2022/10/30 03:04:49;;;;;;;21.23;13.32;;;17.00;1.00;;;;;;5043420;28;20065;-54
2022/10/30 03:07:15;;;;;;;19.83;11.88;;;17.00;1.00;;;;;;5050735;28;20048;-56
2022/10/30 03:09:40;;;;;;;16.50;12.55;;;17.00;1.00;;;;;;5048413;28;20033;-56
2022/10/30 03:12:06;;;;;;;15.10;12.20;;;17.00;1.00;;;;;;5049710;28;20106;-53
2022/10/30 03:14:31;;;;;;;19.83;12.48;;;17.00;1.00;;;;;;5048248;28;20047;-55
2022/10/30 03:16:57;;;;;;;19.50;12.85;;;17.00;1.00;;;;;;5049082;28;20375;-58
2022/10/30 03:19:23;;;;;;;16.80;11.90;;;16.90;1.00;;;;;;5054500;28;20032;-53
2022/10/30 03:21:48;;;;;;;20.17;13.00;;;16.90;1.00;;;;;;5053560;28;20032;-56
2022/10/30 03:24:14;;;;;;;23.90;13.13;;;16.90;1.00;;;;;;5049469;28;20501;-55
2022/10/30 03:26:40;;;;;;;19.73;11.82;;;16.90;1.00;;;;;;5049686;28;20087;-56
2022/10/30 03:29:05;;;;;;;16.52;12.27;;;16.90;1.00;;;;;;5049602;28;20029;-57
2022/10/30 03:31:31;;;;;;;16.02;11.73;;;16.90;1.00;;;;;;5048973;28;20029;-56
2022/10/30 03:33:57;;;;;;;18.42;11.57;;;16.90;1.00;;;;;;5051520;28;20120;-55
2022/10/30 03:36:24;;;;;;;18.10;12.15;;;16.80;1.00;;;;;;5048419;28;20037;-58
2022/10/30 03:38:50;;;;;;;18.38;11.98;;;16.90;1.00;;;;;;5050669;28;20036;-57
2022/10/30 03:41:15;;;;;;;16.02;10.55;;;16.80;1.00;;;;;;5049634;28;20048;-57
2022/10/30 03:43:41;;;;;;;16.67;11.43;;;16.80;1.00;;;;;;5052486;28;20032;-55
2022/10/30 03:46:08;;;;;;;19.58;12.02;;;16.80;1.00;;;;;;5051580;28;20364;-56
2022/10/30 03:48:34;;;;;;;20.75;11.88;;;16.80;1.00;;;;;;5048566;28;20044;-56
2022/10/30 03:50:59;;;;;;;13.55;11.02;;;16.80;1.00;;;;;;5050185;28;20029;-57
2022/10/30 03:53:27;;;;;;;15.57;11.35;;;16.70;1.00;;;;;;5051071;28;20025;-54
2022/10/30 03:55:57;;;;;;;18.25;11.77;;;16.80;1.00;;;;;;5052550;28;20037;-56
2022/10/30 03:58:23;;;;;;;16.83;11.35;;;16.80;1.00;;;;;;5047840;28;20487;-56
2022/10/30 04:00:48;;;;;;;15.43;11.73;;;16.80;1.00;;;;;;5050900;28;20032;-57
2022/10/30 04:03:14;;;;;;;18.50;12.45;;;16.70;1.00;;;;;;5051299;28;20029;-56
2022/10/30 04:05:39;;;;;;;16.65;11.85;;;16.70;1.00;;;;;;5053831;28;20107;-56
2022/10/30 04:08:09;;;;;;;17.08;12.10;;;16.70;1.00;;;;;;5049323;28;20063;-56
2022/10/30 04:10:35;;;;;;;20.88;13.35;;;16.70;1.00;;;;;;5057238;28;20021;-56
2022/10/30 04:13:06;;;;;;;16.13;12.10;;;16.70;1.00;;;;;;5052943;28;20134;-56
2022/10/30 04:15:32;;;;;;;18.75;13.13;;;16.70;1.00;;;;;;5057649;28;20029;-58
2022/10/30 04:17:58;;;;;;;18.83;13.45;;;16.70;1.00;;;;;;5053502;28;20076;-57
2022/10/30 04:20:24;;;;;;;20.05;13.95;;;16.70;1.00;;;;;;5051862;28;20064;-57
2022/10/30 04:23:02;;;;;;;19.35;14.60;;;16.70;1.00;;;;;;5049006;28;20063;-56
2022/10/30 04:25:31;;;;;;;22.33;14.90;;;16.70;1.00;;;;;;5050230;28;20510;-57
2022/10/30 04:27:57;;;;;;;19.77;14.32;;;16.60;1.00;;;;;;5048946;28;20047;-57
2022/10/30 04:30:25;;;;;;;21.35;14.35;;;16.70;1.00;;;;;;5052317;28;20080;-56
2022/10/30 04:32:53;;;;;;;19.10;14.13;;;16.70;1.00;;;;;;5051053;28;20032;-58
2022/10/30 04:35:21;;;;;;;23.00;14.82;;;16.70;1.00;;;;;;5051522;28;20032;-54
2022/10/30 04:37:57;;;;;;;24.38;14.10;;;16.70;1.00;;;;;;5053011;28;20455;-56
2022/10/30 04:40:24;;;;;;;22.40;14.40;;;16.60;1.00;;;;;;5053315;28;20062;-56
2022/10/30 04:42:50;;;;;;;18.08;13.70;;;16.70;1.00;;;;;;5049870;28;20025;-57
2022/10/30 04:45:16;;;;;;;17.88;13.05;;;16.70;1.00;;;;;;5051856;28;20033;-57
2022/10/30 04:47:41;;;;;;;18.75;13.95;;;16.60;1.00;;;;;;5049163;28;20123;-54
2022/10/30 04:50:08;;;;;;;21.83;14.20;;;16.60;1.00;;;;;;5049691;28;20025;-58
2022/10/30 04:52:33;;;;;;;19.23;14.35;;;16.60;1.00;;;;;;5048717;28;20037;-55
2022/10/30 04:54:59;;;;;;;18.00;14.30;;;16.60;1.00;;;;;;5050386;28;20035;-56
2022/10/30 04:57:25;;;;;;;20.42;13.60;;;16.60;1.00;;;;;;5053411;28;20471;-56
2022/10/30 04:59:50;;;;;;;18.88;13.23;;;16.60;1.00;;;;;;5052523;28;20108;-57
2022/10/30 05:02:18;;;;;;;19.33;13.32;;;16.60;1.00;;;;;;5054694;28;20064;-54
2022/10/30 05:04:44;;;;;;;20.58;13.52;;;16.60;1.00;;;;;;5048287;28;20029;-57
2022/10/30 05:07:10;;;;;;;17.98;12.00;;;16.60;1.00;;;;;;5050512;28;20043;-56
2022/10/30 05:09:36;;;;;;;16.23;11.63;;;16.60;1.00;;;;;;5050123;28;20041;-56
2022/10/30 05:12:02;;;;;;;17.40;11.05;;;16.60;1.00;;;;;;5051358;28;20033;-54
2022/10/30 05:14:29;;;;;;;18.38;10.82;;;16.50;1.00;;;;;;5051813;28;20116;-57
2022/10/30 05:16:54;;;;;;;14.52;10.85;;;16.50;1.00;;;;;;5047856;28;20065;-52
2022/10/30 05:19:20;;;;;;;14.05;9.35;;;16.50;1.00;;;;;;5052431;28;20398;-56
2022/10/30 05:21:46;;;;;;;18.17;10.85;;;16.50;1.00;;;;;;5051881;28;20078;-55
2022/10/30 05:24:11;;;;;;;14.70;9.38;;;16.50;1.00;;;;;;5053845;28;20117;-53
2022/10/30 05:26:37;;;;;;;14.63;9.25;;;16.50;1.00;;;;;;5055109;28;20441;-57
2022/10/30 05:29:02;;;;;;;14.73;9.70;;;16.40;1.00;;;;;;5049510;28;20068;-54
2022/10/30 05:31:28;;;;;;;14.68;9.82;;;16.40;1.00;;;;;;5049892;28;20021;-56
2022/10/30 05:33:54;;;;;;;12.32;8.65;;;16.40;1.00;;;;;;5049220;28;20052;-56
2022/10/30 05:36:19;;;;;;;10.90;9.05;;;16.40;1.00;;;;;;5052404;28;20159;-58
2022/10/30 05:38:45;;;;;;;16.13;9.40;;;16.40;1.00;;;;;;5051233;28;20037;-57
2022/10/30 05:41:11;;;;;;;13.43;8.90;;;16.30;1.00;;;;;;5051394;28;20021;-58
2022/10/30 05:43:37;;;;;;;16.27;8.77;;;16.30;1.00;;;;;;5051599;28;20056;-52
2022/10/30 05:46:02;;;;;;;15.90;9.18;;;16.40;1.00;;;;;;5052232;28;20499;-57
2022/10/30 05:48:28;;;;;;;9.88;7.68;;;16.40;1.00;;;;;;5051650;28;20045;-56
2022/10/30 05:50:57;;;;;;;14.75;8.55;;;16.40;1.00;;;;;;5051368;28;20502;-55
2022/10/30 05:53:23;;;;;;;16.30;8.20;;;16.30;1.00;;;;;;5054177;28;20044;-57
2022/10/30 05:55:49;;;;;;;13.50;8.63;;;16.30;1.00;;;;;;5054656;28;20029;-57
2022/10/30 05:58:15;;;;;;;13.45;8.82;;;16.30;1.00;;;;;;5051296;28;20029;-56
2022/10/30 06:00:43;;;;;;;11.30;8.48;;;16.30;1.00;;;;;;5049390;28;20021;-55
2022/10/30 06:03:12;;;;;;;9.98;7.85;;;16.30;1.00;;;;;;5047199;28;20380;-55
2022/10/30 06:05:38;;;;;;;14.00;8.30;;;16.30;1.00;;;;;;5053741;28;20102;-57
2022/10/30 06:08:06;;;;;;;16.05;8.43;;;16.30;1.00;;;;;;5049713;28;20041;-56
2022/10/30 06:10:33;;;;;;;13.38;8.27;;;16.30;1.00;;;;;;5047559;28;20048;-56
2022/10/30 06:13:01;;;;;;;14.10;8.80;;;16.30;1.00;;;;;;5050646;28;20033;-56
2022/10/30 06:15:27;;;;;;;12.48;7.63;;;16.30;1.00;;;;;;5049948;28;20069;-55
2022/10/30 06:17:53;;;;;;;9.68;7.63;;;16.30;1.00;;;;;;5053519;28;20056;-55
2022/10/30 06:20:21;;;;;;;11.68;8.32;;;16.30;1.00;;;;;;5052688;28;20021;-57
2022/10/30 06:23:07;;;;;;;13.25;8.02;;;16.30;1.00;;;;;;5048624;28;20032;-55
2022/10/30 06:25:35;;;;;;;14.45;8.23;;;16.40;1.00;;;;;;5053544;28;20122;-52
2022/10/30 06:28:01;;;;;;;11.75;7.72;;;16.40;1.00;;;;;;5050346;28;20027;-54
2022/10/30 06:30:27;;;;;;;14.23;8.05;;;16.40;1.00;;;;;;5050091;28;20104;-52
2022/10/30 06:32:57;;;;;;;14.45;7.88;;;16.40;1.00;;;;;;5049116;28;20025;-55
2022/10/30 06:35:22;;;;;;;16.02;8.55;;;16.40;1.00;;;;;;5049149;28;20096;-57
2022/10/30 06:37:48;;;;;;;13.48;8.15;;;16.40;1.00;;;;;;5050341;28;20104;-55
2022/10/30 06:40:15;;;;;;;15.27;8.75;;;16.40;1.00;;;;;;5051963;28;20021;-56
2022/10/30 06:42:42;;;;;;;12.63;8.80;;;16.50;1.00;;;;;;5048124;28;20031;-56
2022/10/30 06:45:08;;;;;;;12.80;8.25;;;16.50;1.00;;;;;;5054958;28;20112;-57
2022/10/30 06:47:34;;;;;;;18.48;8.70;;;16.50;1.00;;;;;;5052595;28;22470;-56
2022/10/30 06:50:00;;;;;;;13.05;8.35;;;16.50;1.00;;;;;;5049626;28;20025;-56
2022/10/30 06:52:26;;;;;;;14.13;9.43;;;16.50;1.00;;;;;;5049974;28;20025;-58
2022/10/30 06:54:51;;;;;;;15.05;9.57;;;16.60;1.00;;;;;;5049075;28;20037;-59
2022/10/30 06:57:17;;;;;;;17.00;9.85;;;16.60;1.00;;;;;;5045528;28;20055;-55
2022/10/30 06:59:43;;;;;;;15.85;9.95;;;16.50;1.00;;;;;;5048863;28;20375;-57
2022/10/30 07:02:10;;;;;;;19.85;10.27;;;16.60;1.00;;;;;;5051153;28;20032;-55
2022/10/30 07:04:35;;;;;;;15.70;10.05;;;16.60;1.00;;;;;;5051017;28;20029;-55
2022/10/30 07:07:01;;;;;;;14.98;10.57;;;16.60;1.00;;;;;;5047656;28;20471;-54
2022/10/30 07:09:26;;;;;;;12.13;9.23;;;16.60;1.00;;;;;;5047019;28;20071;-55
2022/10/30 07:11:52;;;;;;;15.00;9.48;;;16.60;1.00;;;;;;5046383;28;20022;-57
2022/10/30 07:14:17;;;;;;;15.02;9.40;;;16.70;1.00;;;;;;5041630;28;20067;-56
2022/10/30 07:16:43;;;;;;;16.40;9.90;;;16.70;1.00;;;;;;5047358;28;20049;-56
2022/10/30 07:19:09;;;;;;;14.98;9.18;;;16.70;1.00;;;;;;5048390;28;20025;-54
2022/10/30 07:21:34;;;;;;;17.02;9.30;;;16.70;1.00;;;;;;5051081;28;20453;-56
2022/10/30 07:24:00;;;;;;;13.57;8.40;;;16.70;1.00;;;;;;5049611;28;20025;-56
2022/10/30 07:26:25;;;;;;;13.18;9.27;;;16.70;1.00;;;;;;5052836;28;20068;-56
2022/10/30 07:28:51;;;;;;;17.35;10.38;;;16.80;1.00;;;;;;5047279;28;20029;-54
2022/10/30 07:31:17;;;;;;;16.67;10.82;;;16.80;1.00;;;;;;5050172;28;20087;-57
2022/10/30 07:33:42;;;;;;;17.17;9.98;;;16.70;1.00;;;;;;5032009;28;20056;-54
2022/10/30 07:36:08;;;;;;;14.52;8.65;;;16.80;1.00;;;;;;5051429;28;20071;-56
2022/10/30 07:38:33;;;;;;;16.48;10.07;;;16.80;1.00;;;;;;5055344;28;20029;-54
2022/10/30 07:40:59;;;;;;;18.42;9.52;;;16.80;1.00;;;;;;5050938;28;20120;-56
2022/10/30 07:43:24;;;;;;;17.75;10.05;;;16.70;1.00;;;;;;5052378;28;20474;-57
2022/10/30 07:45:50;;;;;;;15.00;9.98;;;16.70;1.00;;;;;;5056066;28;20028;-57
2022/10/30 07:48:16;;;;;;;16.70;10.23;;;16.70;1.00;;;;;;5050218;28;20029;-57
2022/10/30 07:50:41;;;;;;;12.32;10.15;;;16.70;1.00;;;;;;5054837;28;20024;-57
2022/10/30 07:53:07;;;;;;;12.02;9.70;;;16.70;1.00;;;;;;5051774;28;20033;-52
2022/10/30 07:55:32;;;;;;;12.00;9.57;;;16.80;1.00;;;;;;5052556;28;20051;-58
2022/10/30 07:57:58;;;;;;;13.90;9.18;;;16.80;1.00;;;;;;5049965;28;20033;-52
2022/10/30 08:00:24;;;;;;;14.82;9.27;;;16.80;1.00;;;;;;5056477;28;20474;-56
2022/10/30 08:02:50;;;;;;;15.38;8.80;;;16.80;1.00;;;;;;5051507;28;20036;-58
2022/10/30 08:05:16;;;;;;;12.48;8.48;;;16.90;1.00;;;;;;5051683;28;20074;-58
2022/10/30 08:07:45;;;;;;;14.48;8.48;;;17.00;1.00;;;;;;5056137;28;20120;-59
2022/10/30 08:10:11;;;;;;;14.35;9.15;;;17.00;1.00;;;;;;5047800;28;20024;-58
2022/10/30 08:12:39;;;;;;;10.30;8.93;;;16.90;1.00;;;;;;5052045;28;20112;-55
2022/10/30 08:15:06;;;;;;;13.63;9.18;;;17.00;1.00;;;;;;5053056;28;20024;-55
2022/10/30 08:17:32;;;;;;;15.13;9.35;;;17.10;1.00;;;;;;5053320;28;20048;-56
2022/10/30 08:19:58;;;;;;;12.93;9.10;;;17.10;1.00;;;;;;5055430;28;20021;-55
2022/10/30 08:22:24;;;;;;;16.27;9.90;;;17.10;1.00;;;;;;5056281;28;20044;-56
2022/10/30 08:24:50;;;;;;;16.27;9.15;;;17.10;1.00;;;;;;5050647;28;20418;-56
2022/10/30 08:27:15;;;;;;;12.43;9.27;;;17.10;1.00;;;;;;5049249;28;20036;-56
2022/10/30 08:29:41;;;;;;;16.42;9.93;;;17.20;1.00;;;;;;5052827;28;20024;-56
2022/10/30 08:32:06;;;;;;;16.08;9.77;;;17.20;1.00;;;;;;5051392;28;20029;-57
2022/10/30 08:34:33;;;;;;;19.55;9.80;;;17.20;1.00;;;;;;5054585;28;20032;-57
2022/10/30 08:36:59;;;;;;;17.80;9.13;;;17.20;1.00;;;;;;5052732;28;20471;-57
2022/10/30 08:39:25;;;;;;;19.40;9.88;;;17.20;1.00;;;;;;5053875;28;20040;-57
2022/10/30 08:41:51;;;;;;;14.98;9.35;;;17.20;1.00;;;;;;5051424;28;20121;-58
2022/10/30 08:44:16;;;;;;;13.50;9.48;;;17.20;1.00;;;;;;5054207;28;20116;-56
2022/10/30 08:46:42;;;;;;;13.45;8.50;;;17.20;1.00;;;;;;5049881;28;20460;-57
2022/10/30 08:49:07;;;;;;;14.73;9.25;;;17.20;1.00;;;;;;5055258;28;20124;-57
2022/10/30 08:51:34;;;;;;;14.27;8.38;;;17.20;1.00;;;;;;5048404;28;20079;-57
2022/10/30 08:54:00;;;;;;;15.85;8.20;;;17.30;1.00;;;;;;5050575;28;20087;-55
2022/10/30 08:56:26;;;;;;;13.27;8.52;;;17.40;1.00;;;;;;5043271;28;20029;-53
2022/10/30 08:58:52;;;;;;;17.33;9.52;;;17.30;1.00;;;;;;5053324;28;20068;-52
2022/10/30 09:01:18;;;;;;;11.95;7.90;;;17.30;1.00;;;;;;5050903;28;20052;-52
2022/10/30 09:03:44;;;;;;;12.50;8.38;;;17.40;1.00;;;;;;5055911;28;20032;-60
2022/10/30 09:06:10;;;;;;;17.88;9.60;;;17.50;1.00;;;;;;5051136;28;20112;-59
2022/10/30 09:08:35;;;;;;;18.00;8.85;;;17.50;1.00;;;;;;5053332;28;20123;-49
2022/10/30 09:11:01;;;;;;;15.73;9.30;;;17.60;1.00;;;;;;5049751;28;20376;-53
2022/10/30 09:13:27;;;;;;;17.90;8.30;;;17.70;1.00;;;;;;5051276;28;20036;-58
2022/10/30 09:15:52;;;;;;;14.07;7.78;;;17.70;1.00;;;;;;5049401;28;20459;-56
2022/10/30 09:18:18;;;;;;;13.40;7.90;;;17.70;1.00;;;;;;5052185;28;20380;-57
2022/10/30 09:20:47;;;;;;;12.90;8.88;;;17.80;1.00;;;;;;5049760;28;20078;-56
2022/10/30 09:23:12;;;;;;;17.15;8.52;;;17.80;1.00;;;;;;5052164;28;20024;-55
2022/10/30 09:25:38;;;;;;;16.85;8.10;;;17.90;1.00;;;;;;5053291;28;20039;-55
2022/10/30 09:28:03;;;;;;;16.45;8.50;;;17.90;1.00;;;;;;5051793;28;20037;-56
2022/10/30 09:30:29;;;;;;;11.75;7.82;;;18.00;1.00;;;;;;5050152;28;20474;-56
2022/10/30 09:33:00;;;;;;;11.05;7.40;;;18.00;1.00;;;;;;5049053;28;20382;-56
2022/10/30 09:35:26;;;;;;;16.33;8.77;;;18.00;1.00;;;;;;5051622;28;20017;-57
2022/10/30 09:37:52;;;;;;;15.60;8.27;;;18.10;1.00;;;;;;5052031;28;20032;-57
2022/10/30 09:40:49;;;;;;;15.15;8.98;;;18.10;1.00;;;;;;5051950;28;20025;-56
2022/10/30 09:43:43;;;;;;;15.10;8.85;;;18.10;1.00;;;;;;5050815;28;20376;-56
2022/10/30 09:46:27;;;;;;;15.48;8.65;;;18.20;1.00;;;;;;5044704;28;20059;-56
2022/10/30 09:48:55;;;;;;;15.70;9.60;;;18.20;1.00;;;;;;5049652;28;20040;-58
2022/10/30 09:51:39;;;;;;;17.45;9.85;;;18.20;1.00;;;;;;5046316;28;20037;-55
2022/10/30 09:54:18;;;;;;;14.97;10.07;;;18.30;1.00;;;;;;5051989;28;20041;-55
2022/10/30 09:56:50;;;;;;;16.63;9.70;;;18.30;1.00;;;;;;5050012;28;20024;-54
2022/10/30 09:59:25;;;;;;;14.55;10.30;;;18.40;1.00;;;;;;5049301;28;20390;-57
2022/10/30 10:02:18;;;;;;;20.92;10.05;;;18.40;1.00;;;;;;5047645;28;20455;-53
2022/10/30 10:04:48;;;;;;;14.70;10.90;;;18.50;1.00;;;;;;5041110;28;20035;-55
2022/10/30 10:07:40;;;;;;;20.23;11.18;;;18.50;1.00;;;;;;5049109;28;20045;-56
2022/10/30 10:10:13;;;;;;;19.23;12.38;;;18.50;1.00;;;;;;5052552;28;20356;-57
2022/10/30 10:12:44;;;;;;;17.63;11.98;;;18.60;1.00;;;;;;5064742;28;20032;-56
2022/10/30 10:15:24;;;;;;;21.15;12.52;;;18.60;1.00;;;;;;5046684;28;20067;-57
2022/10/30 10:17:51;;;;;;;16.88;12.18;;;18.60;1.00;;;;;;5050975;28;20091;-57
2022/10/30 10:20:40;;;;;;;20.20;12.45;;;18.70;1.00;;;;;;5051766;28;20071;-55
2022/10/30 10:23:25;;;;;;;17.80;12.05;;;18.70;1.00;;;;;;5050760;28;20025;-56
2022/10/30 10:25:58;;;;;;;17.63;11.88;;;18.70;1.00;;;;;;5047734;28;20458;-55
2022/10/30 10:28:58;;;;;;;17.75;11.38;;;18.80;1.00;;;;;;5051104;28;20529;-56
2022/10/30 10:31:38;;;;;;;18.38;12.27;;;18.80;1.00;;;;;;5050432;28;20063;-55
2022/10/30 10:34:37;;;;;;;21.05;12.52;;;18.80;1.00;;;;;;5050405;28;20421;-56
2022/10/30 10:37:12;;;;;;;16.27;11.75;;;18.90;1.00;;;;;;5047533;28;20033;-56
2022/10/30 10:39:44;;;;;;;16.85;12.25;;;18.90;1.00;;;;;;5050863;28;20040;-56
2022/10/30 10:42:34;;;;;;;15.35;11.45;;;19.00;1.00;;;;;;5046230;28;20029;-57
2022/10/30 10:45:13;;;;;;;18.83;11.43;;;19.00;1.00;;;;;;5053004;28;20028;-57
2022/10/30 10:48:03;;;;;;;19.23;11.88;;;19.00;1.00;;;;;;5049536;28;20037;-57
2022/10/30 10:50:46;;;;;;;16.77;11.05;;;19.10;1.00;;;;;;5051458;28;20482;-57
2022/10/30 10:53:20;;;;;;;17.83;11.93;;;19.10;1.00;;;;;;5052646;28;20128;-56
2022/10/30 10:55:48;;;;;;;;;;;19.10;1.00;;;;;;5047928;28;20087;-57
2022/10/30 10:58:33;;;;;;;17.20;11.52;;;19.20;1.00;;;;;;5048908;28;19916;-56
2022/10/30 11:00:59;;;;;;;18.92;10.82;;;19.30;1.00;;;;;;5048435;28;20029;-56
2022/10/30 11:03:36;;;;;;;22.92;11.60;;;19.30;1.00;;;;;;5049300;28;20030;-57
2022/10/30 11:06:26;;;;;;;16.25;10.45;;;19.30;1.00;;;;;;5048009;28;20033;-56
2022/10/30 11:09:12;;;;;;;15.43;9.55;;;19.30;1.00;;;;;;5048522;28;20196;-54
2022/10/30 11:11:37;;;;;;;15.70;9.82;;;19.50;1.00;;;;;;5045354;28;20071;-57
2022/10/30 11:14:13;;;;;;;17.30;10.10;;;19.50;1.00;;;;;;5052941;28;20041;-57
2022/10/30 11:16:49;;;;;;;17.10;10.50;;;19.50;1.00;;;;;;5052943;28;20051;-57
2022/10/30 11:19:15;;;;;;;12.10;9.55;;;19.50;1.00;;;;;;5054424;28;20025;-54
2022/10/30 11:21:52;;;;;;;13.40;9.90;;;19.60;1.00;;;;;;5055888;28;20033;-55
2022/10/30 11:24:30;;;;;;;19.08;10.98;;;19.70;1.00;;;;;;5049071;28;20451;-57
2022/10/30 11:26:58;;;;;;;13.80;9.40;;;19.70;1.00;;;;;;5049116;28;20056;-57
2022/10/30 11:29:28;;;;;;;16.42;8.63;;;19.80;1.00;;;;;;5055119;28;20060;-55
2022/10/30 11:32:03;;;;;;;16.15;8.68;;;19.80;1.00;;;;;;5053570;28;20108;-56
2022/10/30 11:34:36;;;;;;;15.57;8.55;;;19.90;1.00;;;;;;5049585;28;20029;-57
2022/10/30 11:37:03;;;;;;;14.23;7.70;;;19.90;1.00;;;;;;5051139;28;20542;-56
2022/10/30 11:39:34;;;;;;;15.40;8.32;;;20.00;1.00;;;;;;5050594;28;20025;-56
2022/10/30 11:42:02;;;;;;;13.75;8.80;;;20.10;1.00;;;;;;5050762;28;20025;-57
2022/10/30 11:44:49;;;;;;;13.27;7.63;;;20.10;1.00;;;;;;5052006;28;20049;-56
2022/10/30 11:47:20;;;;;;;12.27;7.95;;;20.10;1.00;;;;;;5051021;28;20080;-57
2022/10/30 11:49:55;;;;;;;13.30;8.07;;;20.10;1.00;;;;;;5044444;28;20110;-56
2022/10/30 11:52:24;;;;;;;12.82;7.00;;;20.20;1.00;;;;;;5049300;28;20062;-57
2022/10/30 11:54:55;;;;;;;12.10;7.15;;;20.20;1.00;;;;;;5047709;28;20028;-56
2022/10/30 11:57:32;;;;;;;16.25;8.65;;;20.20;1.00;;;;;;5053158;28;20033;-56
2022/10/30 11:59:58;;;;;;;14.80;8.50;;;20.30;1.00;;;;;;5051532;28;20025;-56
2022/10/30 12:02:28;;;;;;;15.73;8.85;;;20.30;1.00;;;;;;5053190;28;20048;-57
2022/10/30 12:04:59;;;;;;;20.08;8.32;;;20.30;1.00;;;;;;5055797;28;20040;-56
2022/10/30 12:07:30;;;;;;;15.55;8.15;;;20.40;1.00;;;;;;5066529;28;20033;-63
2022/10/30 12:09:58;;;;;;;14.07;7.63;;;20.40;1.00;;;;;;5047907;28;20075;-53
2022/10/30 12:12:27;;;;;;;10.52;6.80;;;20.50;1.00;;;;;;5053673;28;20033;-57
2022/10/30 12:14:54;;;;;;;11.90;7.72;;;20.50;1.00;;;;;;5065910;28;20060;-62
2022/10/30 12:17:21;;;;;;;12.95;7.38;;;20.60;1.00;;;;;;5049215;28;20590;-57
2022/10/30 12:19:53;;;;;;;11.90;7.40;;;20.60;1.00;;;;;;5047681;28;20033;-53
2022/10/30 12:22:29;;;;;;;10.32;6.95;;;20.70;1.00;;;;;;5047609;28;20158;-56
2022/10/30 12:24:56;;;;;;;14.02;7.72;;;20.70;1.00;;;;;;5050011;28;20138;-57
2022/10/30 12:27:22;;;;;;;13.80;6.95;;;20.70;1.00;;;;;;5047985;28;20076;-57
2022/10/30 12:30:04;;;;;;;10.23;6.20;;;20.80;1.00;;;;;;5049914;28;20498;-57
2022/10/30 12:32:47;;;;;;;11.15;6.35;;;20.90;1.00;;;;;;5052964;28;20430;-57
2022/10/30 12:35:40;;;;;;;15.05;5.43;;;20.90;1.00;;;;;;5051796;28;20371;-57
2022/10/30 12:38:22;;;;;;;16.70;5.80;;;20.90;1.00;;;;;;5049099;28;20029;-54
2022/10/30 12:40:59;;;;;;;12.13;5.88;;;21.00;1.00;;;;;;5044520;28;20471;-56
2022/10/30 12:43:28;;;;;;;11.88;6.00;;;21.00;1.00;;;;;;5050183;28;20021;-56
2022/10/30 12:46:32;;;;;;;11.90;5.80;;;21.10;1.00;;;;;;5052325;28;20029;-55
2022/10/30 12:49:40;;;;;;;8.77;4.95;;;21.10;1.00;;;;;;5023710;28;20546;-57
2022/10/30 12:52:39;;;;;;;11.68;4.80;;;21.10;1.00;;;;;;5047744;28;20390;-56
2022/10/30 12:55:32;;;;;;;8.88;4.97;;;21.30;1.00;;;;;;5047691;28;20025;-56
2022/10/30 12:58:01;;;;;;;8.98;5.13;;;21.30;1.00;;;;;;5047017;28;20021;-57